createdAt,value
2023-05-05T00:02:12.159Z,42.55
2023-05-05T00:04:38.709Z,41.91
2023-05-05T00:07:05.284Z,42.90
2023-05-05T00:09:31.781Z,42.76
2023-05-05T00:11:58.253Z,40.54
2023-05-05T00:14:24.728Z,41.71
2023-05-05T00:16:51.254Z,42.14
2023-05-05T00:19:17.855Z,42.82
2023-05-05T00:21:44.425Z,42.20
2023-05-05T00:24:10.971Z,41.16
2023-05-05T00:26:37.445Z,42.35
2023-05-05T00:29:03.930Z,42.29
2023-05-05T00:31:30.598Z,42.05
2023-05-05T00:33:57.132Z,41.89
2023-05-05T00:36:23.739Z,41.18
2023-05-05T00:38:50.227Z,41.17
2023-05-05T00:41:19.715Z,41.87
2023-05-05T00:43:46.218Z,42.43
2023-05-05T00:46:33.954Z,42.76
2023-05-05T00:49:00.934Z,42.53
2023-05-05T00:51:28.805Z,42.26
2023-05-05T00:53:55.699Z,42.84
2023-05-05T00:56:22.292Z,41.52
2023-05-05T00:58:49.350Z,41.80
2023-05-05T01:01:17.632Z,41.86
2023-05-05T01:03:44.583Z,41.96
2023-05-05T01:06:26.335Z,43.45
2023-05-05T01:09:08.763Z,43.10
2023-05-05T01:11:54.811Z,43.17
2023-05-05T01:15:10.118Z,43.32
2023-05-05T01:17:43.301Z,43.47
2023-05-05T01:20:17.551Z,43.05
2023-05-05T01:22:53.353Z,43.77
2023-05-05T01:25:56.574Z,43.91
2023-05-05T01:29:12.179Z,43.48
2023-05-05T01:31:44.383Z,43.66
2023-05-05T01:34:16.560Z,44.01
2023-05-05T01:36:55.409Z,43.75
2023-05-05T01:39:27.535Z,44.33
2023-05-05T01:41:57.796Z,44.06
2023-05-05T01:44:24.801Z,44.34
2023-05-05T01:46:52.992Z,44.07
2023-05-05T01:49:20.002Z,44.21
2023-05-05T01:51:48.781Z,44.64
2023-05-05T01:54:18.360Z,45.25
2023-05-05T01:56:48.101Z,45.44
2023-05-05T01:59:15.945Z,45.31
2023-05-05T02:01:45.558Z,44.89
2023-05-05T02:04:14.839Z,45.35
2023-05-05T02:06:44.240Z,45.09
2023-05-05T02:09:13.928Z,45.21
2023-05-05T02:11:41.157Z,45.88
2023-05-05T02:14:10.212Z,46.00
2023-05-05T02:16:42.210Z,46.17
2023-05-05T02:19:11.890Z,46.18
2023-05-05T02:21:38.772Z,46.10
2023-05-05T02:24:05.980Z,46.75
2023-05-05T02:26:36.355Z,46.62
2023-05-05T02:29:12.637Z,46.34
2023-05-05T02:31:46.410Z,46.96
2023-05-05T02:34:21.068Z,47.09
2023-05-05T02:36:52.582Z,46.65
2023-05-05T02:39:35.252Z,47.33
2023-05-05T02:42:04.859Z,46.90
2023-05-05T02:44:33.538Z,46.95
2023-05-05T02:47:02.297Z,46.94
2023-05-05T02:49:28.952Z,47.33
2023-05-05T02:51:55.490Z,47.37
2023-05-05T02:54:22.080Z,47.23
2023-05-05T02:56:53.492Z,47.50
2023-05-05T02:59:51.277Z,47.33
2023-05-05T03:02:43.311Z,47.67
2023-05-05T03:05:16.929Z,47.48
2023-05-05T03:08:02.166Z,47.86
2023-05-05T03:10:43.903Z,48.45
2023-05-05T03:13:14.302Z,48.30
2023-05-05T03:15:47.694Z,48.30
2023-05-05T03:18:14.879Z,48.49
2023-05-05T03:20:42.696Z,48.28
2023-05-05T03:23:09.422Z,48.26
2023-05-05T03:25:47.192Z,48.28
2023-05-05T03:28:14.905Z,48.38
2023-05-05T03:30:42.579Z,48.72
2023-05-05T03:33:10.661Z,48.81
2023-05-05T03:35:37.379Z,48.94
2023-05-05T03:38:03.856Z,49.28
2023-05-05T03:40:43.005Z,49.37
2023-05-05T03:43:11.044Z,49.38
2023-05-05T03:45:37.584Z,49.14
2023-05-05T03:48:04.428Z,49.37
2023-05-05T03:50:30.893Z,49.82
2023-05-05T03:52:57.346Z,49.59
2023-05-05T03:55:23.884Z,49.95
2023-05-05T03:57:50.401Z,50.18
2023-05-05T04:00:17.269Z,50.30
2023-05-05T04:02:43.991Z,50.03
2023-05-05T04:05:10.566Z,49.97
2023-05-05T04:07:37.085Z,50.32
2023-05-05T04:10:03.731Z,50.32
2023-05-05T04:12:30.335Z,50.52
2023-05-05T04:14:56.900Z,50.92
2023-05-05T04:17:26.509Z,51.02
2023-05-05T04:19:52.987Z,51.13
2023-05-05T04:22:19.460Z,51.33
2023-05-05T04:24:45.973Z,51.00
2023-05-05T04:27:12.417Z,51.20
2023-05-05T04:29:38.942Z,51.04
2023-05-05T04:32:05.708Z,51.22
2023-05-05T04:34:32.239Z,51.29
2023-05-05T04:36:58.763Z,51.78
2023-05-05T04:39:25.261Z,51.59
2023-05-05T04:41:51.999Z,51.37
2023-05-05T04:44:18.486Z,51.43
2023-05-05T04:46:45.070Z,51.54
2023-05-05T04:49:11.572Z,50.67
2023-05-05T04:51:41.756Z,50.92
2023-05-05T04:54:08.507Z,50.37
2023-05-05T04:56:35.029Z,50.61
2023-05-05T04:59:01.507Z,50.67
2023-05-05T05:01:28.054Z,50.06
2023-05-05T05:03:54.603Z,49.78
2023-05-05T05:06:21.173Z,49.77
2023-05-05T05:08:47.629Z,49.78
2023-05-05T05:11:14.163Z,49.63
2023-05-05T05:13:40.665Z,49.45
2023-05-05T05:16:07.447Z,49.66
2023-05-05T05:18:33.955Z,49.54
2023-05-05T05:21:00.431Z,49.36
2023-05-05T05:23:26.933Z,49.66
2023-05-05T05:25:53.525Z,49.79
2023-05-05T05:28:20.063Z,49.46
2023-05-05T05:30:46.695Z,49.48
2023-05-05T05:33:13.437Z,48.04
2023-05-05T05:35:40.114Z,47.88
2023-05-05T05:38:06.649Z,47.44
2023-05-05T05:40:33.112Z,47.64
2023-05-05T05:42:59.716Z,47.90
2023-05-05T05:45:26.237Z,48.72
2023-05-05T05:47:52.761Z,48.22
2023-05-05T05:50:19.329Z,48.25
2023-05-05T05:52:46.084Z,48.23
2023-05-05T05:55:12.640Z,48.71
2023-05-05T05:57:39.148Z,48.49
2023-05-05T06:00:06.272Z,48.01
2023-05-05T06:02:32.920Z,48.31
2023-05-05T06:04:59.480Z,47.79
2023-05-05T06:07:25.953Z,48.16
2023-05-05T06:09:52.444Z,47.44
2023-05-05T06:12:18.924Z,47.12
2023-05-05T06:14:45.428Z,47.46
2023-05-05T06:17:11.927Z,47.56
2023-05-05T06:19:39.449Z,47.71
2023-05-05T06:22:06.009Z,46.92
2023-05-05T06:24:32.735Z,46.77
2023-05-05T06:26:59.300Z,46.25
2023-05-05T06:29:26.253Z,45.85
2023-05-05T06:31:52.888Z,45.50
2023-05-05T06:34:19.908Z,45.33
2023-05-05T06:36:46.455Z,44.76
2023-05-05T06:39:15.278Z,44.29
2023-05-05T06:41:42.506Z,43.49
2023-05-05T06:44:08.996Z,42.33
2023-05-05T06:46:35.632Z,41.69
2023-05-05T06:49:02.226Z,42.15
2023-05-05T06:51:29.780Z,41.75
2023-05-05T06:53:56.256Z,42.63
2023-05-05T06:56:22.724Z,42.15
2023-05-05T06:58:49.313Z,41.77
2023-05-05T07:01:15.884Z,41.92
2023-05-05T07:03:45.654Z,42.60
2023-05-05T07:06:12.161Z,42.99
2023-05-05T07:08:38.649Z,42.68
2023-05-05T07:11:05.138Z,42.21
2023-05-05T07:13:31.615Z,42.36
2023-05-05T07:15:58.141Z,42.84
2023-05-05T07:18:24.598Z,42.59
2023-05-05T07:20:51.069Z,41.75
2023-05-05T07:23:17.535Z,41.54
2023-05-05T07:25:44.265Z,41.81
2023-05-05T07:28:11.435Z,41.83
2023-05-05T07:30:37.965Z,41.79
2023-05-05T07:33:04.553Z,41.14
2023-05-05T07:35:31.081Z,40.95
2023-05-05T07:37:57.612Z,40.81
2023-05-05T07:40:24.167Z,40.56
2023-05-05T07:42:50.721Z,40.49
2023-05-05T07:45:17.395Z,39.92
2023-05-05T07:47:43.961Z,40.06
2023-05-05T07:50:10.821Z,40.12
2023-05-05T07:52:44.963Z,39.56
2023-05-05T07:55:14.954Z,39.47
2023-05-05T07:57:41.445Z,39.61
2023-05-05T08:00:08.624Z,39.76
2023-05-05T08:02:35.782Z,39.39
2023-05-05T08:05:02.433Z,39.79
2023-05-05T08:07:28.930Z,39.58
2023-05-05T08:09:55.492Z,39.16
2023-05-05T08:12:22.006Z,39.67
2023-05-05T08:14:48.512Z,38.57
2023-05-05T08:17:14.983Z,38.83
2023-05-05T08:19:41.459Z,39.41
2023-05-05T08:22:08.034Z,39.50
2023-05-05T08:24:37.080Z,40.11
2023-05-05T08:27:03.666Z,39.73
2023-05-05T08:29:30.186Z,39.58
2023-05-05T08:39:32.994Z,39.42
2023-05-05T08:41:59.868Z,38.95
2023-05-05T08:44:26.397Z,38.72
2023-05-05T08:46:54.034Z,38.64
2023-05-05T08:49:22.440Z,39.81
2023-05-05T08:51:52.327Z,39.16
2023-05-05T08:54:23.443Z,34.23
2023-05-05T08:56:50.413Z,35.75
2023-05-05T08:59:18.865Z,35.46
2023-05-05T09:01:46.230Z,34.57
2023-05-05T09:04:12.835Z,33.08
2023-05-05T09:06:40.190Z,33.21
2023-05-05T09:09:06.924Z,34.82
2023-05-05T09:11:34.981Z,34.02
2023-05-05T09:14:01.541Z,36.56
2023-05-05T09:16:28.120Z,36.33
2023-05-05T09:19:01.712Z,35.52
2023-05-05T09:21:28.275Z,34.67
2023-05-05T09:24:08.624Z,33.76
2023-05-05T09:26:38.398Z,34.06
2023-05-05T09:29:05.846Z,33.75
2023-05-05T09:31:34.042Z,33.73
2023-05-05T09:34:01.105Z,34.39
2023-05-05T09:36:47.458Z,35.89
2023-05-05T09:39:16.961Z,36.00
2023-05-05T09:41:44.396Z,36.08
2023-05-05T09:44:12.411Z,36.09
2023-05-05T09:46:50.761Z,35.26
2023-05-05T09:49:20.133Z,34.92
2023-05-05T09:51:47.551Z,34.98
2023-05-05T09:54:28.159Z,33.98
2023-05-05T09:56:56.308Z,33.56
2023-05-05T09:59:23.958Z,34.23
2023-05-05T10:01:51.711Z,33.98
2023-05-05T10:04:28.192Z,33.78
2023-05-05T10:06:58.649Z,34.19
2023-05-05T10:09:26.699Z,33.75
2023-05-05T10:11:53.728Z,33.63
2023-05-05T10:14:20.362Z,32.54
2023-05-05T10:16:49.628Z,33.17
2023-05-05T10:19:18.913Z,32.28
2023-05-05T10:22:03.400Z,32.64
2023-05-05T10:24:48.877Z,33.15
2023-05-05T10:27:19.942Z,32.17
2023-05-05T10:30:03.253Z,32.56
2023-05-05T10:35:25.141Z,32.25
2023-05-05T10:37:53.084Z,32.39
2023-05-05T10:40:24.617Z,33.02
2023-05-05T10:42:53.919Z,33.48
2023-05-05T10:45:20.733Z,34.12
2023-05-05T10:47:49.458Z,33.81
2023-05-05T10:50:28.863Z,33.62
2023-05-05T10:53:26.792Z,34.28
2023-05-05T10:55:57.126Z,34.24
2023-05-05T10:58:51.335Z,34.54
2023-05-05T11:01:48.856Z,34.38
2023-05-05T11:04:20.015Z,35.21
2023-05-05T11:07:08.486Z,34.81
2023-05-05T11:09:36.750Z,34.84
2023-05-05T11:12:05.260Z,34.21
2023-05-05T11:14:32.934Z,34.74
2023-05-05T11:16:59.585Z,34.16
2023-05-05T11:19:47.137Z,34.88
2023-05-05T11:22:14.180Z,34.25
2023-05-05T11:24:40.735Z,33.98
2023-05-05T11:27:07.590Z,34.44
2023-05-05T11:30:06.316Z,34.00
2023-05-05T11:32:32.941Z,33.29
2023-05-05T11:35:01.156Z,33.09
2023-05-05T11:37:28.869Z,32.83
2023-05-05T11:40:13.207Z,31.81
2023-05-05T11:42:39.884Z,32.72
2023-05-05T11:45:21.139Z,32.37
2023-05-05T11:47:47.706Z,32.18
2023-05-05T11:50:19.223Z,30.65
2023-05-05T11:52:47.064Z,31.54
2023-05-05T11:55:19.546Z,32.34
2023-05-05T11:57:46.107Z,32.07
2023-05-05T12:00:13.131Z,32.20
2023-05-05T12:02:39.745Z,31.31
2023-05-05T12:05:06.738Z,31.34
2023-05-05T12:07:33.778Z,31.79
2023-05-05T12:10:00.400Z,31.36
2023-05-05T12:12:37.554Z,31.11
2023-05-05T12:15:05.313Z,31.18
2023-05-05T12:17:38.489Z,31.61
2023-05-05T12:20:05.786Z,31.30
2023-05-05T12:22:32.411Z,30.45
2023-05-05T12:25:01.542Z,30.82
2023-05-05T12:27:31.157Z,30.63
2023-05-05T12:30:12.056Z,31.13
2023-05-05T12:32:38.671Z,30.26
2023-05-05T12:35:07.110Z,30.20
2023-05-05T12:37:34.617Z,30.54
2023-05-05T12:40:01.140Z,30.91
2023-05-05T12:42:30.446Z,30.30
2023-05-05T12:44:57.156Z,29.86
2023-05-05T12:47:31.091Z,30.52
2023-05-05T12:49:58.013Z,30.67
2023-05-05T12:52:24.587Z,30.80
2023-05-05T12:54:59.295Z,30.85
2023-05-05T12:57:26.329Z,30.59
2023-05-05T12:59:53.482Z,30.70
2023-05-05T13:02:20.941Z,31.42
2023-05-05T13:04:53.034Z,33.43
2023-05-05T13:07:21.769Z,31.51
2023-05-05T13:09:49.958Z,31.39
2023-05-05T13:12:20.105Z,30.18
2023-05-05T13:14:46.929Z,30.18
2023-05-05T13:17:14.327Z,29.00
2023-05-05T13:19:41.145Z,28.97
2023-05-05T13:22:08.617Z,28.13
2023-05-05T13:24:49.693Z,27.54
2023-05-05T13:27:17.010Z,26.74
2023-05-05T13:29:43.573Z,26.20
2023-05-05T13:32:10.293Z,26.16
2023-05-05T13:34:36.858Z,25.45
2023-05-05T13:37:03.458Z,25.84
2023-05-05T13:39:30.022Z,25.46
2023-05-05T13:41:56.584Z,25.86
2023-05-05T13:44:23.117Z,25.25
2023-05-05T13:46:49.622Z,26.16
2023-05-05T13:49:16.219Z,26.34
2023-05-05T13:51:43.996Z,27.16
2023-05-05T13:54:10.542Z,27.54
2023-05-05T13:56:37.142Z,26.98
2023-05-05T13:59:06.465Z,26.35
2023-05-05T14:01:33.063Z,26.45
2023-05-05T14:04:00.488Z,25.94
2023-05-05T14:06:28.890Z,25.64
2023-05-05T14:08:55.432Z,25.46
2023-05-05T14:11:22.292Z,25.60
2023-05-05T14:13:48.837Z,24.66
2023-05-05T14:16:15.734Z,25.01
2023-05-05T14:18:42.503Z,24.80
2023-05-05T14:21:09.107Z,25.84
2023-05-05T14:23:35.860Z,26.50
2023-05-05T14:26:02.704Z,27.10
2023-05-05T14:28:29.549Z,26.44
2023-05-05T14:30:56.241Z,26.19
2023-05-05T14:33:25.775Z,25.31
2023-05-05T14:35:52.506Z,24.87
2023-05-05T14:38:19.035Z,23.70
2023-05-05T14:40:53.127Z,23.01
2023-05-05T14:43:25.207Z,23.04
2023-05-05T14:45:51.839Z,22.54
2023-05-05T14:48:18.622Z,23.50
2023-05-05T14:50:45.371Z,23.14
2023-05-05T14:53:11.903Z,23.98
2023-05-05T14:55:38.473Z,24.00
2023-05-05T14:58:05.074Z,24.39
2023-05-05T15:00:31.570Z,23.96
2023-05-05T15:02:58.204Z,24.08
2023-05-05T15:05:24.767Z,24.35
2023-05-05T15:07:51.516Z,23.55
2023-05-05T15:10:21.104Z,23.10
2023-05-05T15:12:48.659Z,23.62
2023-05-05T15:15:15.374Z,23.01
2023-05-05T15:17:42.032Z,22.64
2023-05-05T15:20:08.962Z,23.02
2023-05-05T15:22:35.648Z,22.76
2023-05-05T15:25:02.290Z,22.33
2023-05-05T15:27:28.992Z,21.96
2023-05-05T15:29:58.304Z,22.17
2023-05-05T15:32:24.911Z,22.19
2023-05-05T15:34:51.519Z,21.96
2023-05-05T15:37:18.017Z,22.32
2023-05-05T15:39:44.556Z,22.65
2023-05-05T15:42:11.170Z,23.28
2023-05-05T15:44:37.810Z,23.63
2023-05-05T15:47:04.815Z,23.93
2023-05-05T15:49:31.435Z,24.24
2023-05-05T15:51:58.228Z,24.10
2023-05-05T15:54:24.757Z,24.84
2023-05-05T15:56:51.214Z,25.15
2023-05-05T15:59:19.026Z,26.35
2023-05-05T16:01:45.943Z,26.48
2023-05-05T16:04:12.540Z,27.01
2023-05-05T16:06:39.121Z,27.27
2023-05-05T16:09:05.605Z,27.86
2023-05-05T16:11:32.161Z,28.37
2023-05-05T16:13:58.755Z,28.67
2023-05-05T16:16:25.296Z,28.03
2023-05-05T16:18:51.786Z,28.00
2023-05-05T16:21:18.284Z,28.54
2023-05-05T16:23:44.808Z,30.12
2023-05-05T16:26:11.362Z,31.75
2023-05-05T16:28:38.067Z,32.65
2023-05-05T16:31:04.736Z,33.18
2023-05-05T16:33:31.330Z,33.21
2023-05-05T16:35:57.927Z,36.35
2023-05-05T16:38:24.439Z,38.72
2023-05-05T16:40:51.102Z,40.39
2023-05-05T16:43:17.916Z,41.27
2023-05-05T16:45:44.424Z,42.79
2023-05-05T16:48:11.006Z,42.74
2023-05-05T16:50:37.552Z,41.93
2023-05-05T16:53:04.085Z,41.20
2023-05-05T16:55:30.621Z,40.36
2023-05-05T16:57:57.171Z,39.22
2023-05-05T17:00:23.748Z,37.50
2023-05-05T17:02:50.330Z,36.70
2023-05-05T17:05:17.015Z,37.64
2023-05-05T17:07:43.554Z,37.34
2023-05-05T17:10:10.296Z,36.89
2023-05-05T17:12:36.806Z,36.71
2023-05-05T17:15:03.667Z,35.21
2023-05-05T17:17:30.233Z,34.90
2023-05-05T17:19:56.765Z,34.76
2023-05-05T17:22:23.238Z,33.83
2023-05-05T17:24:49.708Z,33.58
2023-05-05T17:27:16.909Z,31.97
2023-05-05T17:29:43.722Z,31.71
2023-05-05T17:32:10.451Z,31.51
2023-05-05T17:34:37.085Z,30.66
2023-05-05T17:37:03.592Z,30.98
2023-05-05T17:39:30.124Z,32.04
2023-05-05T17:41:56.654Z,32.38
2023-05-05T17:44:23.220Z,32.25
2023-05-05T17:46:49.791Z,31.79
2023-05-05T17:49:16.297Z,32.60
2023-05-05T17:51:42.854Z,32.41
2023-05-05T17:54:09.309Z,33.12
2023-05-05T17:56:35.763Z,33.83
2023-05-05T17:59:02.337Z,34.41
2023-05-05T18:01:28.949Z,35.61
2023-05-05T18:03:55.571Z,36.11
2023-05-05T18:06:22.058Z,35.87
2023-05-05T18:08:48.556Z,34.53
2023-05-05T18:11:15.102Z,35.44
2023-05-05T18:13:42.767Z,36.09
2023-05-05T18:16:09.266Z,36.76
2023-05-05T18:18:35.822Z,37.33
2023-05-05T18:21:02.370Z,36.54
2023-05-05T18:23:28.883Z,36.52
2023-05-05T18:25:55.406Z,36.43
2023-05-05T18:28:21.983Z,35.69
2023-05-05T18:30:48.556Z,35.18
2023-05-05T18:33:15.219Z,34.90
2023-05-05T18:35:41.774Z,35.61
2023-05-05T18:38:08.324Z,35.40
2023-05-05T18:40:35.037Z,36.49
2023-05-05T18:43:01.638Z,36.90
2023-05-05T18:45:28.329Z,37.47
2023-05-05T18:47:54.991Z,37.08
2023-05-05T18:50:21.819Z,37.86
2023-05-05T18:52:48.310Z,38.33
2023-05-05T18:55:15.162Z,37.82
2023-05-05T18:57:41.700Z,37.60
2023-05-05T19:00:09.625Z,38.34
2023-05-05T19:02:36.295Z,37.77
2023-05-05T19:05:03.080Z,37.32
2023-05-05T19:07:35.283Z,37.36
2023-05-05T19:10:04.555Z,37.79
2023-05-05T19:12:31.165Z,37.98
2023-05-05T19:14:57.761Z,37.82
2023-05-05T19:17:24.752Z,38.53
2023-05-05T19:19:51.355Z,38.10
2023-05-05T19:22:20.549Z,38.30
2023-05-05T19:24:47.082Z,39.05
2023-05-05T19:27:16.407Z,38.98
2023-05-05T19:29:43.495Z,38.34
2023-05-05T19:32:10.177Z,37.38
2023-05-05T19:34:36.797Z,38.31
2023-05-05T19:37:03.297Z,39.15
2023-05-05T19:39:29.826Z,38.74
2023-05-05T19:41:56.444Z,38.90
2023-05-05T19:44:23.002Z,39.35
2023-05-05T19:46:49.490Z,39.53
2023-05-05T19:49:16.062Z,39.34
2023-05-05T19:51:42.533Z,39.70
2023-05-05T19:54:09.072Z,40.10
2023-05-05T19:56:35.551Z,39.92
2023-05-05T19:59:03.057Z,40.86
2023-05-05T20:01:30.035Z,41.20
2023-05-05T20:03:56.996Z,41.29
2023-05-05T20:06:23.639Z,41.60
2023-05-05T20:08:50.403Z,41.84
2023-05-05T20:11:17.060Z,42.21
2023-05-05T20:13:43.986Z,42.11
2023-05-05T20:16:11.538Z,42.02
2023-05-05T20:18:38.282Z,43.53
2023-05-05T20:21:04.762Z,44.21
2023-05-05T20:23:31.270Z,44.26
2023-05-05T20:25:57.781Z,44.47
2023-05-05T20:28:24.390Z,44.11
2023-05-05T20:30:50.878Z,44.19
2023-05-05T20:33:17.409Z,44.87
2023-05-05T20:35:43.915Z,44.84
2023-05-05T20:38:10.387Z,45.58
2023-05-05T20:40:36.891Z,45.19
2023-05-05T20:43:03.422Z,45.81
2023-05-05T20:45:29.949Z,47.37
2023-05-05T20:47:56.504Z,46.97
2023-05-05T20:50:23.041Z,47.74
2023-05-05T20:52:49.653Z,47.73
2023-05-05T20:55:16.135Z,48.01
2023-05-05T20:57:42.651Z,47.67
2023-05-05T21:00:09.828Z,47.46
2023-05-05T21:02:36.938Z,47.05
2023-05-05T21:05:03.777Z,46.65
2023-05-05T21:07:48.924Z,46.46
2023-05-05T21:10:34.120Z,46.25
2023-05-05T21:13:19.402Z,46.23
2023-05-05T21:15:45.962Z,45.90
2023-05-05T21:18:12.594Z,45.94
2023-05-05T21:20:39.105Z,46.19
2023-05-05T21:23:05.581Z,46.09
2023-05-05T21:25:32.181Z,45.76
2023-05-05T21:27:58.724Z,45.42
2023-05-05T21:30:25.305Z,46.09
2023-05-05T21:33:10.532Z,45.91
2023-05-05T21:35:55.648Z,45.87
2023-05-05T21:38:40.967Z,45.81
2023-05-05T21:41:07.538Z,45.79
2023-05-05T21:43:52.788Z,45.94
2023-05-05T21:46:37.721Z,46.20
2023-05-05T21:49:23.195Z,46.17
2023-05-05T21:52:08.209Z,46.00
2023-05-05T21:54:53.231Z,46.22
2023-05-05T21:57:38.332Z,45.73
2023-05-05T22:00:05.196Z,45.84
2023-05-05T22:02:32.344Z,45.32
2023-05-05T22:04:58.896Z,45.57
2023-05-05T22:07:25.594Z,46.92
2023-05-05T22:09:52.200Z,47.97
2023-05-05T22:12:18.686Z,49.17
2023-05-05T22:14:45.200Z,49.43
2023-05-05T22:17:11.701Z,52.47
2023-05-05T22:19:38.214Z,52.46
2023-05-05T22:22:04.687Z,54.14
2023-05-05T22:24:31.970Z,54.05
2023-05-05T22:26:58.620Z,54.45
2023-05-05T22:29:25.158Z,55.30
2023-05-05T22:31:51.819Z,55.92
2023-05-05T22:34:18.439Z,55.93
2023-05-05T22:36:44.917Z,55.44
2023-05-05T22:39:11.450Z,55.79
2023-05-05T22:41:37.925Z,55.40
2023-05-05T22:44:04.513Z,54.15
2023-05-05T22:46:31.227Z,54.39
2023-05-05T22:48:57.837Z,54.29
2023-05-05T22:51:24.359Z,53.27
2023-05-05T22:53:50.928Z,53.34
2023-05-05T22:56:17.461Z,52.51
2023-05-05T22:58:44.128Z,52.25
2023-05-05T23:01:10.955Z,52.92
2023-05-05T23:03:37.563Z,53.64
2023-05-05T23:06:04.059Z,53.29
2023-05-05T23:08:30.610Z,53.11
2023-05-05T23:10:57.149Z,53.28
2023-05-05T23:13:23.708Z,53.00
2023-05-05T23:15:50.289Z,52.83
2023-05-05T23:18:16.774Z,52.57
2023-05-05T23:20:43.986Z,52.43
2023-05-05T23:23:10.510Z,52.32
2023-05-05T23:25:36.998Z,53.19
2023-05-05T23:28:03.645Z,52.76
2023-05-05T23:30:30.198Z,52.70
2023-05-05T23:32:56.743Z,52.57
2023-05-05T23:35:24.056Z,52.84
2023-05-05T23:37:50.514Z,52.45
2023-05-05T23:40:17.113Z,52.51
2023-05-05T23:42:43.627Z,52.38
2023-05-05T23:45:10.652Z,52.21
2023-05-05T23:47:38.668Z,52.91
2023-05-05T23:50:05.575Z,52.75
2023-05-05T23:52:32.046Z,53.32
2023-05-05T23:54:58.501Z,53.78
2023-05-05T23:57:24.973Z,53.75
2023-05-05T23:59:51.452Z,53.44
